createdAt,value
2023-04-10T07:01:11.063Z,5.90
2023-04-10T07:02:12.529Z,5.72
2023-04-10T07:03:14.011Z,6.05
2023-04-10T07:04:15.472Z,6.38
2023-04-10T07:05:17.580Z,6.22
2023-04-10T07:06:18.957Z,5.50
2023-04-10T07:07:20.339Z,6.13
2023-04-10T07:08:21.867Z,6.28
2023-04-10T07:09:26.173Z,6.90
2023-04-10T07:10:27.684Z,6.68
2023-04-10T07:11:29.068Z,5.18
2023-04-10T07:12:30.648Z,5.90
2023-04-10T07:13:32.298Z,5.88
2023-04-10T07:14:34.895Z,5.68
2023-04-10T07:15:36.330Z,6.32
2023-04-10T07:16:37.837Z,5.90
2023-04-10T07:17:39.343Z,5.82
2023-04-10T07:18:41.314Z,6.53
2023-04-10T07:19:42.663Z,5.40
2023-04-10T07:20:44.093Z,5.93
2023-04-10T07:21:45.679Z,5.18
2023-04-10T07:22:47.044Z,5.63
2023-04-10T07:23:48.791Z,5.65
2023-04-10T07:24:50.323Z,5.53
2023-04-10T07:25:52.156Z,6.07
2023-04-10T07:26:53.698Z,6.15
2023-04-10T07:27:55.160Z,5.68
2023-04-10T07:28:56.633Z,6.07
2023-04-10T07:29:58.079Z,6.38
2023-04-10T07:30:59.536Z,5.88
2023-04-10T07:32:01.176Z,4.97
2023-04-10T07:33:02.786Z,5.50
2023-04-10T07:34:04.411Z,5.72
2023-04-10T07:35:07.175Z,5.38
2023-04-10T07:36:08.957Z,5.22
2023-04-10T07:37:10.447Z,4.85
2023-04-10T07:38:12.259Z,5.15
2023-04-10T07:39:13.793Z,5.47
2023-04-10T07:40:15.433Z,5.80
2023-04-10T07:41:17.008Z,5.65
2023-04-10T07:42:18.349Z,5.43
2023-04-10T07:43:19.740Z,6.10
2023-04-10T07:44:21.482Z,5.40
2023-04-10T07:45:22.931Z,5.45
2023-04-10T07:46:24.485Z,5.65
2023-04-10T07:47:26.331Z,5.80
2023-04-10T07:48:27.867Z,4.72
2023-04-10T07:49:29.420Z,5.80
2023-04-10T07:50:31.082Z,5.75
2023-04-10T07:51:32.466Z,5.22
2023-04-10T07:52:33.981Z,5.95
2023-04-10T07:53:36.625Z,5.80
2023-04-10T07:54:38.183Z,5.78
2023-04-10T07:55:42.361Z,4.25
2023-04-10T07:58:02.083Z,4.90
2023-04-10T07:59:03.604Z,4.65
2023-04-10T08:00:05.574Z,5.80
2023-04-10T08:01:07.051Z,4.82
2023-04-10T08:02:08.587Z,4.80
2023-04-10T08:03:12.593Z,4.90
2023-04-10T08:04:14.466Z,5.00
2023-04-10T08:05:16.206Z,5.60
2023-04-10T08:06:17.588Z,4.40
2023-04-10T08:07:22.294Z,4.90
2023-04-10T08:08:23.706Z,4.50
2023-04-10T08:09:25.327Z,5.28
2023-04-10T08:10:27.234Z,4.57
2023-04-10T08:11:31.089Z,4.38
2023-04-10T08:12:34.389Z,4.70
2023-04-10T08:13:36.122Z,4.20
2023-04-10T08:14:37.471Z,3.97
2023-04-10T08:15:38.851Z,4.05
2023-04-10T08:16:40.356Z,4.50
2023-04-10T08:17:41.976Z,5.00
2023-04-10T08:18:43.417Z,4.50
2023-04-10T08:19:44.841Z,3.42
2023-04-10T08:20:46.178Z,4.40
2023-04-10T08:21:47.586Z,4.50
2023-04-10T08:22:49.119Z,3.90
2023-04-10T08:23:51.871Z,4.28
2023-04-10T08:24:53.391Z,5.05
2023-04-10T08:25:54.896Z,4.55
2023-04-10T08:26:56.282Z,4.07
2023-04-10T08:27:57.823Z,4.65
2023-04-10T08:29:00.609Z,4.03
2023-04-10T08:30:02.401Z,4.25
2023-04-10T08:31:04.145Z,4.72
2023-04-10T08:32:05.699Z,4.47
2023-04-10T08:33:07.127Z,4.57
2023-04-10T08:34:08.525Z,4.15
2023-04-10T08:35:10.031Z,4.05
2023-04-10T08:36:12.813Z,4.05
2023-04-10T08:37:15.571Z,4.53
2023-04-10T08:38:17.138Z,4.70
2023-04-10T08:39:18.552Z,3.30
2023-04-10T08:40:20.305Z,3.42
2023-04-10T08:41:22.012Z,4.50
2023-04-10T08:42:23.521Z,4.18
2023-04-10T08:43:26.582Z,3.80
2023-04-10T08:44:28.275Z,4.18
2023-04-10T08:45:29.778Z,3.58
2023-04-10T08:46:35.973Z,4.35
2023-04-10T08:47:39.199Z,3.97
2023-04-10T08:48:52.827Z,3.10
2023-04-10T08:49:56.701Z,4.40
2023-04-10T08:51:01.457Z,3.45
2023-04-10T08:52:07.160Z,4.00
2023-04-10T08:53:13.647Z,3.50
2023-04-10T08:54:20.083Z,3.83
2023-04-10T08:55:21.603Z,3.42
2023-04-10T08:56:24.473Z,3.42
2023-04-10T08:57:27.264Z,3.75
2023-04-10T08:58:28.823Z,3.45
2023-04-10T08:59:31.425Z,3.30
2023-04-10T09:00:38.508Z,4.53
2023-04-10T09:01:40.500Z,2.75
2023-04-10T09:02:42.813Z,3.63
2023-04-10T09:03:48.293Z,3.50
2023-04-10T09:04:52.247Z,3.20
2023-04-10T09:05:54.828Z,3.10
2023-04-10T09:06:56.205Z,3.60
2023-04-10T09:07:57.646Z,3.40
2023-04-10T09:10:08.675Z,3.55
2023-04-10T09:11:10.937Z,3.20
2023-04-10T09:12:14.184Z,3.80
2023-04-10T09:13:15.525Z,3.17
2023-04-10T09:14:25.307Z,3.28
2023-04-10T09:15:26.811Z,2.97
2023-04-10T09:16:30.429Z,3.25
2023-04-10T09:17:32.165Z,3.25
2023-04-10T09:18:49.841Z,3.42
2023-04-10T09:19:54.555Z,3.20
2023-04-10T09:21:06.778Z,3.15
2023-04-10T09:22:08.423Z,3.35
2023-04-10T09:23:24.588Z,3.30
2023-04-10T09:24:27.288Z,2.70
2023-04-10T09:25:34.224Z,3.22
2023-04-10T09:26:35.830Z,3.20
2023-04-10T09:27:38.506Z,2.75
2023-04-10T09:29:00.032Z,3.35
2023-04-10T09:30:02.127Z,2.92
2023-04-10T09:31:27.479Z,2.78
2023-04-10T09:32:45.735Z,3.38
2023-04-10T09:33:47.158Z,3.28
2023-04-10T09:34:57.170Z,2.65
2023-04-10T09:36:03.993Z,3.10
2023-04-10T09:37:06.053Z,3.10
2023-04-10T09:38:17.422Z,3.28
2023-04-10T09:39:18.979Z,3.20
2023-04-10T09:40:25.596Z,2.95
2023-04-10T09:41:27.174Z,3.45
2023-04-10T09:42:39.503Z,2.72
2023-04-10T09:43:43.353Z,2.70
2023-04-10T09:44:44.823Z,2.40
2023-04-10T09:45:57.201Z,2.42
2023-04-10T09:47:14.893Z,3.13
2023-04-10T09:48:16.600Z,3.20
2023-04-10T09:49:18.219Z,3.17
2023-04-10T09:50:37.820Z,2.60
2023-04-10T09:51:40.926Z,3.50
2023-04-10T09:52:42.313Z,2.95
2023-04-10T09:53:50.985Z,3.03
2023-04-10T09:54:57.507Z,3.33
2023-04-10T09:55:59.707Z,3.00
2023-04-10T09:57:01.318Z,2.38
2023-04-10T09:58:04.217Z,2.58
2023-04-10T09:59:07.545Z,3.42
2023-04-10T10:00:10.170Z,2.65
2023-04-10T10:01:12.528Z,3.45
2023-04-10T10:02:14.986Z,2.83
2023-04-10T10:03:21.070Z,3.45
2023-04-10T10:04:23.689Z,2.67
2023-04-10T10:05:30.472Z,2.85
2023-04-10T10:06:32.892Z,3.05
2023-04-10T10:07:35.068Z,2.60
2023-04-10T10:08:36.745Z,3.05
2023-04-10T10:09:38.667Z,2.67
2023-04-10T10:10:47.078Z,2.28
2023-04-10T10:11:51.706Z,2.15
2023-04-10T10:12:59.542Z,2.60
2023-04-10T10:14:05.614Z,1.85
2023-04-10T10:15:25.735Z,2.53
2023-04-10T10:16:37.180Z,2.45
2023-04-10T10:17:45.444Z,2.53
2023-04-10T10:19:09.118Z,2.30
2023-04-10T10:20:13.187Z,2.20
2023-04-10T10:21:15.845Z,2.33
2023-04-10T10:22:17.575Z,2.15
2023-04-10T10:23:19.863Z,2.17
2023-04-10T10:24:26.036Z,2.85
2023-04-10T10:25:27.839Z,2.28
2023-04-10T10:26:30.413Z,2.25
2023-04-10T10:27:33.603Z,2.00
2023-04-10T10:28:36.058Z,2.60
2023-04-10T10:29:39.424Z,2.20
2023-04-10T10:30:42.321Z,2.53
2023-04-10T10:31:44.442Z,2.00
2023-04-10T10:32:46.479Z,2.28
2023-04-10T10:33:48.006Z,2.65
2023-04-10T10:34:52.908Z,2.00
2023-04-10T10:35:54.642Z,2.60
2023-04-10T10:36:58.080Z,2.10
2023-04-10T10:38:00.366Z,2.10
2023-04-10T10:39:15.703Z,2.08
2023-04-10T10:40:19.803Z,2.55
2023-04-10T10:41:28.634Z,2.60
2023-04-10T10:42:40.727Z,2.25
2023-04-10T10:44:01.700Z,1.90
2023-04-10T10:45:17.305Z,2.00
2023-04-10T10:46:41.833Z,1.83
2023-04-10T10:47:50.835Z,1.75
2023-04-10T10:48:56.864Z,1.80
2023-04-10T10:50:03.476Z,1.80
2023-04-10T10:51:05.222Z,1.83
2023-04-10T10:52:06.857Z,1.60
2023-04-10T10:53:08.261Z,1.55
2023-04-10T10:54:35.087Z,1.60
2023-04-10T10:55:37.034Z,1.55
2023-04-10T10:56:38.551Z,1.90
2023-04-10T10:57:46.800Z,1.65
2023-04-10T10:58:48.957Z,2.17
2023-04-10T10:59:50.620Z,2.40
2023-04-10T11:00:52.009Z,2.03
2023-04-10T11:02:16.744Z,1.73
2023-04-10T11:03:18.263Z,1.73
2023-04-10T11:04:45.772Z,1.50
2023-04-10T11:05:51.459Z,2.03
2023-04-10T11:06:52.895Z,2.30
2023-04-10T11:08:00.439Z,2.00
2023-04-10T11:09:02.231Z,1.88
2023-04-10T11:10:03.714Z,1.60
2023-04-10T11:11:07.091Z,1.30
2023-04-10T11:12:08.570Z,1.60
2023-04-10T11:13:17.878Z,1.42
2023-04-10T11:14:20.008Z,1.67
2023-04-10T11:15:25.782Z,1.60
2023-04-10T11:16:30.027Z,1.60
2023-04-10T11:17:54.125Z,1.50
2023-04-10T11:19:06.411Z,1.60
2023-04-10T11:20:15.756Z,1.30
2023-04-10T11:21:19.558Z,1.30
2023-04-10T11:22:20.926Z,1.25
2023-04-10T11:23:22.355Z,1.40
2023-04-10T11:24:23.796Z,1.58
2023-04-10T11:25:55.849Z,1.27
2023-04-10T11:26:57.461Z,1.45
2023-04-10T11:27:58.968Z,1.38
2023-04-10T11:29:26.603Z,1.50
2023-04-10T11:30:36.101Z,1.10
2023-04-10T11:31:37.677Z,1.40
2023-04-10T11:32:42.999Z,1.15
2023-04-10T11:33:45.824Z,1.10
2023-04-10T11:34:47.189Z,1.30
2023-04-10T11:35:48.834Z,1.35
2023-04-10T11:36:51.012Z,1.35
2023-04-10T11:37:52.968Z,1.00
2023-04-10T11:38:58.460Z,1.17
2023-04-10T11:40:06.452Z,1.40
2023-04-10T11:41:07.867Z,1.30
2023-04-10T11:42:11.768Z,1.17
2023-04-10T11:43:14.756Z,1.20
2023-04-10T11:44:21.086Z,1.40
2023-04-10T11:45:25.357Z,1.45
2023-04-10T11:46:28.017Z,1.25
2023-04-10T11:47:29.764Z,1.25
2023-04-10T11:48:32.062Z,1.33
2023-04-10T11:49:34.690Z,1.42
2023-04-10T11:50:36.464Z,1.60
2023-04-10T11:51:40.016Z,1.40
2023-04-10T11:52:41.433Z,1.05
2023-04-10T11:53:42.953Z,1.20
2023-04-10T11:54:49.014Z,1.25
2023-04-10T11:55:50.386Z,0.90
2023-04-10T11:57:02.177Z,1.20
2023-04-10T11:58:03.535Z,1.17
2023-04-10T11:59:16.179Z,1.02
2023-04-10T12:00:24.164Z,1.20
2023-04-10T12:01:25.617Z,1.05
2023-04-10T12:02:27.218Z,1.10
2023-04-10T12:03:47.141Z,1.30
2023-04-10T12:04:58.034Z,1.10
2023-04-10T12:05:59.561Z,1.42
2023-04-10T12:07:01.423Z,1.10
2023-04-10T12:08:03.027Z,1.17
2023-04-10T12:09:14.154Z,1.25
2023-04-10T12:10:16.009Z,1.30
2023-04-10T12:11:20.366Z,1.40
2023-04-10T12:12:36.192Z,1.33
2023-04-10T12:13:38.327Z,1.02
2023-04-10T12:14:41.688Z,1.38
2023-04-10T12:15:43.216Z,1.20
2023-04-10T12:16:46.316Z,1.33
2023-04-10T12:17:47.787Z,1.35
2023-04-10T12:18:50.127Z,1.02
2023-04-10T12:19:51.639Z,1.10
2023-04-10T12:20:57.117Z,1.10
2023-04-10T12:21:59.496Z,1.40
2023-04-10T12:23:03.012Z,1.10
2023-04-10T12:24:05.354Z,1.20
2023-04-10T12:25:11.843Z,1.30
2023-04-10T12:26:15.618Z,1.70
2023-04-10T12:27:21.436Z,1.35
2023-04-10T12:28:22.885Z,1.45
2023-04-10T12:29:27.767Z,1.35
2023-04-10T12:30:29.237Z,1.00
2023-04-10T12:31:35.101Z,1.23
2023-04-10T12:32:36.685Z,1.20
2023-04-10T12:33:39.192Z,1.10
2023-04-10T12:34:41.077Z,1.10
2023-04-10T12:35:42.751Z,1.10
2023-04-10T12:36:52.334Z,1.17
2023-04-10T12:37:54.820Z,1.20
2023-04-10T12:39:00.677Z,1.20
2023-04-10T12:40:08.770Z,1.08
2023-04-10T12:41:11.930Z,1.08
2023-04-10T12:42:23.344Z,1.20
2023-04-10T12:43:36.496Z,1.00
2023-04-10T12:44:54.561Z,1.10
2023-04-10T12:45:56.923Z,1.10
2023-04-10T12:47:02.020Z,0.90
2023-04-10T12:48:03.608Z,1.10
2023-04-10T12:49:11.697Z,1.00
2023-04-10T12:50:18.229Z,1.10
2023-04-10T12:51:19.855Z,1.20
2023-04-10T12:52:24.244Z,1.45
2023-04-10T12:53:26.279Z,1.05
2023-04-10T12:54:28.978Z,1.10
2023-04-10T12:55:31.171Z,0.98
2023-04-10T12:56:42.782Z,1.00
2023-04-10T12:57:46.730Z,1.30
2023-04-10T12:58:48.206Z,1.35
2023-04-10T12:59:50.164Z,3.60
2023-04-10T13:00:51.524Z,2.45
2023-04-10T13:01:56.367Z,1.25
2023-04-10T13:02:58.120Z,1.33
2023-04-10T13:03:59.702Z,1.65
2023-04-10T13:05:01.817Z,1.55
2023-04-10T13:06:06.194Z,1.30
2023-04-10T13:07:07.904Z,1.20
2023-04-10T13:08:09.358Z,1.27
2023-04-10T13:09:11.112Z,1.10
2023-04-10T13:10:12.704Z,0.93
2023-04-10T13:11:14.098Z,1.20
2023-04-10T13:12:16.214Z,1.33
2023-04-10T13:13:17.858Z,1.20
2023-04-10T13:14:19.611Z,1.10
2023-04-10T13:15:21.030Z,1.00
2023-04-10T13:16:22.451Z,1.00
2023-04-10T13:17:25.023Z,1.25
2023-04-10T13:18:26.804Z,1.08
2023-04-10T13:19:28.197Z,0.90
2023-04-10T13:20:29.758Z,1.10
2023-04-10T13:21:31.208Z,1.10
2023-04-10T13:22:32.808Z,1.00
2023-04-10T13:23:34.223Z,1.05
2023-04-10T13:24:36.998Z,1.20
2023-04-10T13:25:40.852Z,1.33
2023-04-10T13:26:43.001Z,0.95
2023-04-10T13:27:44.402Z,1.10
2023-04-10T13:28:45.870Z,0.90
2023-04-10T13:29:47.285Z,0.90
2023-04-10T13:30:48.842Z,1.10
2023-04-10T13:31:50.686Z,1.00
2023-04-10T13:32:52.171Z,0.90
2023-04-10T13:33:53.593Z,0.90
2023-04-10T13:34:56.019Z,1.00
2023-04-10T13:35:57.507Z,1.80
2023-04-10T13:36:59.871Z,1.00
2023-04-10T13:38:01.617Z,0.88
2023-04-10T13:39:03.047Z,1.05
2023-04-10T13:40:05.212Z,1.00
2023-04-10T13:41:06.865Z,0.90
2023-04-10T13:42:08.225Z,1.10
2023-04-10T13:43:09.626Z,0.95
2023-04-10T13:44:11.001Z,1.13
2023-04-10T13:45:12.338Z,1.17
2023-04-10T13:46:13.776Z,0.90
2023-04-10T13:47:15.662Z,0.90
2023-04-10T13:48:24.397Z,0.90
2023-04-10T13:49:31.243Z,0.90
2023-04-10T13:50:33.449Z,1.02
2023-04-10T13:51:34.939Z,1.10
2023-04-10T13:52:36.367Z,0.88
2023-04-10T13:53:37.735Z,1.20
2023-04-10T13:54:39.140Z,0.90
2023-04-10T13:55:43.640Z,0.80
2023-04-10T13:56:46.360Z,1.17
2023-04-10T13:57:47.861Z,0.80
2023-04-10T13:58:49.319Z,0.80
2023-04-10T13:59:50.696Z,0.82
2023-04-10T14:00:52.222Z,1.00
2023-04-10T14:01:53.893Z,0.98
2023-04-10T14:02:55.677Z,0.90
2023-04-10T14:03:57.384Z,0.98
2023-04-10T14:04:58.860Z,1.20
2023-04-10T14:06:00.238Z,0.80
2023-04-10T14:07:02.138Z,0.82
2023-04-10T14:08:03.815Z,0.77
2023-04-10T14:09:05.206Z,0.90
2023-04-10T14:10:07.537Z,1.15
2023-04-10T14:11:09.404Z,0.90
2023-04-10T14:12:10.865Z,0.80
2023-04-10T14:13:12.281Z,0.70
2023-04-10T14:14:13.618Z,0.90
2023-04-10T14:15:15.480Z,0.90
2023-04-10T14:16:16.909Z,0.90
2023-04-10T14:17:18.400Z,0.95
2023-04-10T14:18:19.864Z,1.00
2023-04-10T14:19:21.304Z,0.80
2023-04-10T14:20:22.784Z,0.73
2023-04-10T14:21:24.153Z,0.70
2023-04-10T14:22:25.546Z,1.00
2023-04-10T14:23:26.984Z,0.90
2023-04-10T14:24:28.423Z,0.80
2023-04-10T14:25:30.042Z,0.75
2023-04-10T14:26:31.521Z,0.75
2023-04-10T14:27:33.635Z,0.90
2023-04-10T14:28:35.169Z,0.90
2023-04-10T14:29:40.714Z,1.00
2023-04-10T14:30:50.875Z,0.90
2023-04-10T14:31:58.033Z,0.80
2023-04-10T14:32:59.926Z,0.80
2023-04-10T14:34:01.466Z,0.70
2023-04-10T14:35:02.884Z,0.85
2023-04-10T14:36:04.736Z,1.30
2023-04-10T14:37:07.292Z,0.70
2023-04-10T14:38:08.790Z,0.90
2023-04-10T14:39:10.330Z,0.90
2023-04-10T14:40:11.872Z,0.77
2023-04-10T14:41:13.326Z,1.02
2023-04-10T14:42:14.718Z,0.98
2023-04-10T14:43:16.877Z,0.80
2023-04-10T14:44:18.571Z,0.95
2023-04-10T14:45:20.043Z,1.00
2023-04-10T14:46:21.462Z,0.70
2023-04-10T14:47:23.724Z,1.15
2023-04-10T14:48:25.430Z,1.00
2023-04-10T14:49:27.069Z,0.90
2023-04-10T14:50:32.006Z,1.00
2023-04-10T14:51:33.598Z,0.70
2023-04-10T14:52:35.037Z,0.80
2023-04-10T14:53:36.472Z,0.77
2023-04-10T14:54:38.073Z,0.90
2023-04-10T14:55:39.422Z,1.05
2023-04-10T14:56:40.896Z,1.00
2023-04-10T14:57:42.268Z,0.90
2023-04-10T14:58:43.802Z,1.20
2023-04-10T14:59:45.376Z,1.17
2023-04-10T15:00:47.008Z,1.13
2023-04-10T15:01:48.764Z,0.85
2023-04-10T15:02:50.877Z,0.93
2023-04-10T15:03:53.357Z,0.90
2023-04-10T15:04:55.341Z,0.88
2023-04-10T15:06:00.605Z,0.90
2023-04-10T15:07:02.017Z,0.80
2023-04-10T15:08:03.407Z,0.98
2023-04-10T15:09:04.984Z,0.80
2023-04-10T15:10:07.090Z,0.90
2023-04-10T15:11:08.453Z,0.80
2023-04-10T15:12:10.662Z,1.00
2023-04-10T15:13:12.116Z,0.90
2023-04-10T15:14:13.484Z,0.85
2023-04-10T15:15:15.067Z,1.00
2023-04-10T15:16:16.865Z,0.77
2023-04-10T15:17:21.726Z,0.90
2023-04-10T15:18:25.493Z,0.90
2023-04-10T15:19:26.982Z,0.85
2023-04-10T15:20:28.413Z,0.90
2023-04-10T15:21:29.781Z,1.02
2023-04-10T15:22:31.178Z,1.05
2023-04-10T15:23:32.711Z,1.08
2023-04-10T15:24:46.891Z,1.05
2023-04-10T15:25:50.978Z,0.90
2023-04-10T15:26:53.550Z,0.85
2023-04-10T15:27:55.539Z,1.08
2023-04-10T15:28:56.964Z,1.00
2023-04-10T15:29:58.358Z,0.90
2023-04-10T15:30:59.889Z,0.93
2023-04-10T15:32:01.367Z,1.00
2023-04-10T15:33:03.011Z,1.00
2023-04-10T15:34:04.507Z,0.90
2023-04-10T15:35:06.508Z,1.00
2023-04-10T15:36:08.501Z,1.20
2023-04-10T15:37:10.008Z,1.25
2023-04-10T15:38:11.630Z,1.20
2023-04-10T15:39:13.093Z,0.88
2023-04-10T15:40:14.592Z,0.80
2023-04-10T15:41:16.063Z,1.00
2023-04-10T15:42:17.514Z,0.90
2023-04-10T15:43:18.900Z,0.95
2023-04-10T15:44:20.370Z,1.00
2023-04-10T15:45:21.694Z,1.20
2023-04-10T15:46:23.176Z,1.08
2023-04-10T15:47:24.733Z,0.82
2023-04-10T15:48:26.400Z,0.80
2023-04-10T15:49:36.952Z,1.05
2023-04-10T15:50:43.082Z,0.90
2023-04-10T15:51:44.813Z,1.00
2023-04-10T15:52:46.191Z,0.93
2023-04-10T15:53:47.627Z,0.80
2023-04-10T15:54:49.375Z,0.77
2023-04-10T15:55:51.047Z,0.90
2023-04-10T15:56:52.433Z,0.90
2023-04-10T15:57:53.810Z,0.95
2023-04-10T15:58:55.447Z,0.90
2023-04-10T15:59:58.819Z,1.25
2023-04-10T16:01:00.707Z,0.98
2023-04-10T16:02:02.344Z,1.00
2023-04-10T16:03:04.368Z,0.85
2023-04-10T16:04:05.963Z,1.00
2023-04-10T16:05:09.148Z,0.90
2023-04-10T16:06:10.761Z,1.00
2023-04-10T16:07:12.115Z,1.02
2023-04-10T16:08:13.708Z,1.00
2023-04-10T16:09:24.798Z,0.70
2023-04-10T16:10:27.795Z,1.10
2023-04-10T16:11:29.182Z,0.80
2023-04-10T16:12:30.712Z,0.95
2023-04-10T16:13:32.382Z,0.80
2023-04-10T16:14:33.774Z,0.90
2023-04-10T16:15:37.185Z,1.20
2023-04-10T16:16:38.746Z,1.10
2023-04-10T16:17:40.374Z,1.20
2023-04-10T16:18:44.309Z,1.00
2023-04-10T16:19:45.711Z,0.90
2023-04-10T16:20:47.192Z,1.20
2023-04-10T16:21:48.560Z,0.93
2023-04-10T16:22:50.146Z,0.90
2023-04-10T16:23:51.536Z,0.93
2023-04-10T16:25:00.396Z,1.17
